sensor_id;sensor_type;location;lat;lon;timestamp;P1;durP1;ratioP1;P2;durP2;ratioP2
27566;SDS011;15006;48.584;9.186;2023-09-07T00:01:09;4.65;;;3.88;;
27566;SDS011;15006;48.584;9.186;2023-09-07T00:03:36;3.53;;;3.22;;
27566;SDS011;15006;48.584;9.186;2023-09-07T00:06:06;3.58;;;3.38;;
27566;SDS011;15006;48.584;9.186;2023-09-07T00:08:33;3.38;;;3.25;;
27566;SDS011;15006;48.584;9.186;2023-09-07T00:11:05;3.90;;;3.70;;
27566;SDS011;15006;48.584;9.186;2023-09-07T00:13:32;4.00;;;3.70;;
27566;SDS011;15006;48.584;9.186;2023-09-07T00:15:59;3.85;;;3.65;;
27566;SDS011;15006;48.584;9.186;2023-09-07T00:18:27;3.97;;;3.67;;
27566;SDS011;15006;48.584;9.186;2023-09-07T00:20:53;4.20;;;3.78;;
27566;SDS011;15006;48.584;9.186;2023-09-07T00:23:19;3.95;;;3.75;;
27566;SDS011;15006;48.584;9.186;2023-09-07T00:25:45;4.20;;;3.80;;
27566;SDS011;15006;48.584;9.186;2023-09-07T00:28:12;3.85;;;3.55;;
27566;SDS011;15006;48.584;9.186;2023-09-07T00:30:38;7.05;;;3.70;;
27566;SDS011;15006;48.584;9.186;2023-09-07T00:33:04;3.95;;;3.70;;
27566;SDS011;15006;48.584;9.186;2023-09-07T00:35:30;5.80;;;3.63;;
27566;SDS011;15006;48.584;9.186;2023-09-07T00:37:56;3.65;;;3.45;;
27566;SDS011;15006;48.584;9.186;2023-09-07T00:40:22;4.47;;;3.35;;
27566;SDS011;15006;48.584;9.186;2023-09-07T00:42:48;3.97;;;3.60;;
27566;SDS011;15006;48.584;9.186;2023-09-07T00:45:14;3.58;;;3.38;;
27566;SDS011;15006;48.584;9.186;2023-09-07T00:47:41;4.00;;;3.80;;
27566;SDS011;15006;48.584;9.186;2023-09-07T00:50:07;3.67;;;3.47;;
27566;SDS011;15006;48.584;9.186;2023-09-07T00:52:34;3.65;;;3.45;;
27566;SDS011;15006;48.584;9.186;2023-09-07T00:55:01;3.83;;;3.63;;
27566;SDS011;15006;48.584;9.186;2023-09-07T00:57:31;3.22;;;3.13;;
27566;SDS011;15006;48.584;9.186;2023-09-07T00:59:58;3.47;;;3.28;;
27566;SDS011;15006;48.584;9.186;2023-09-07T01:02:24;3.70;;;3.50;;
27566;SDS011;15006;48.584;9.186;2023-09-07T01:04:51;3.30;;;3.20;;
27566;SDS011;15006;48.584;9.186;2023-09-07T01:07:20;3.75;;;3.55;;
27566;SDS011;15006;48.584;9.186;2023-09-07T01:09:51;3.67;;;3.50;;
27566;SDS011;15006;48.584;9.186;2023-09-07T01:12:22;4.07;;;3.55;;
27566;SDS011;15006;48.584;9.186;2023-09-07T01:14:48;4.35;;;3.95;;
27566;SDS011;15006;48.584;9.186;2023-09-07T01:17:13;3.58;;;3.40;;
27566;SDS011;15006;48.584;9.186;2023-09-07T01:19:40;3.97;;;3.78;;
27566;SDS011;15006;48.584;9.186;2023-09-07T01:22:09;4.38;;;4.07;;
27566;SDS011;15006;48.584;9.186;2023-09-07T01:24:37;3.72;;;3.42;;
27566;SDS011;15006;48.584;9.186;2023-09-07T01:27:07;4.03;;;3.80;;
27566;SDS011;15006;48.584;9.186;2023-09-07T01:29:33;4.70;;;4.28;;
27566;SDS011;15006;48.584;9.186;2023-09-07T01:31:59;4.22;;;3.92;;
27566;SDS011;15006;48.584;9.186;2023-09-07T01:34:25;6.72;;;3.72;;
27566;SDS011;15006;48.584;9.186;2023-09-07T01:36:51;4.22;;;3.95;;
27566;SDS011;15006;48.584;9.186;2023-09-07T01:39:17;3.88;;;3.67;;
27566;SDS011;15006;48.584;9.186;2023-09-07T01:41:43;4.15;;;3.70;;
27566;SDS011;15006;48.584;9.186;2023-09-07T01:44:09;4.45;;;4.05;;
27566;SDS011;15006;48.584;9.186;2023-09-07T01:46:35;4.18;;;3.90;;
27566;SDS011;15006;48.584;9.186;2023-09-07T01:49:01;4.78;;;4.47;;
27566;SDS011;15006;48.584;9.186;2023-09-07T01:51:27;4.10;;;3.80;;
27566;SDS011;15006;48.584;9.186;2023-09-07T01:53:53;3.97;;;3.55;;
27566;SDS011;15006;48.584;9.186;2023-09-07T01:56:20;4.25;;;3.80;;
27566;SDS011;15006;48.584;9.186;2023-09-07T01:58:46;4.20;;;4.00;;
27566;SDS011;15006;48.584;9.186;2023-09-07T02:01:23;4.05;;;3.72;;
27566;SDS011;15006;48.584;9.186;2023-09-07T02:03:51;4.00;;;3.60;;
27566;SDS011;15006;48.584;9.186;2023-09-07T02:06:17;3.53;;;3.42;;
27566;SDS011;15006;48.584;9.186;2023-09-07T02:08:43;4.10;;;3.80;;
27566;SDS011;15006;48.584;9.186;2023-09-07T02:11:09;3.72;;;3.53;;
27566;SDS011;15006;48.584;9.186;2023-09-07T02:13:35;3.95;;;3.70;;
27566;SDS011;15006;48.584;9.186;2023-09-07T02:16:04;4.60;;;4.20;;
27566;SDS011;15006;48.584;9.186;2023-09-07T02:18:33;4.03;;;3.60;;
27566;SDS011;15006;48.584;9.186;2023-09-07T02:21:04;3.83;;;3.63;;
27566;SDS011;15006;48.584;9.186;2023-09-07T02:23:31;4.32;;;3.92;;
27566;SDS011;15006;48.584;9.186;2023-09-07T02:25:58;3.63;;;3.42;;
27566;SDS011;15006;48.584;9.186;2023-09-07T02:28:24;4.50;;;4.10;;
27566;SDS011;15006;48.584;9.186;2023-09-07T02:30:51;4.40;;;4.10;;
27566;SDS011;15006;48.584;9.186;2023-09-07T02:33:17;3.83;;;3.63;;
27566;SDS011;15006;48.584;9.186;2023-09-07T02:35:44;4.20;;;3.90;;
27566;SDS011;15006;48.584;9.186;2023-09-07T02:38:10;3.95;;;3.75;;
27566;SDS011;15006;48.584;9.186;2023-09-07T02:40:39;4.10;;;3.90;;
27566;SDS011;15006;48.584;9.186;2023-09-07T02:43:10;5.68;;;3.95;;
27566;SDS011;15006;48.584;9.186;2023-09-07T02:45:36;4.05;;;3.75;;
27566;SDS011;15006;48.584;9.186;2023-09-07T02:48:03;3.67;;;3.45;;
27566;SDS011;15006;48.584;9.186;2023-09-07T02:50:31;3.50;;;3.30;;
27566;SDS011;15006;48.584;9.186;2023-09-07T02:52:59;3.97;;;3.78;;
27566;SDS011;15006;48.584;9.186;2023-09-07T02:55:26;4.05;;;3.70;;
27566;SDS011;15006;48.584;9.186;2023-09-07T02:57:53;4.55;;;4.10;;
27566;SDS011;15006;48.584;9.186;2023-09-07T03:00:20;3.63;;;3.42;;
27566;SDS011;15006;48.584;9.186;2023-09-07T03:02:47;5.57;;;3.58;;
27566;SDS011;15006;48.584;9.186;2023-09-07T03:05:14;4.50;;;4.20;;
27566;SDS011;15006;48.584;9.186;2023-09-07T03:07:41;4.85;;;4.55;;
27566;SDS011;15006;48.584;9.186;2023-09-07T03:10:09;5.18;;;4.75;;
27566;SDS011;15006;48.584;9.186;2023-09-07T03:12:35;4.30;;;4.10;;
27566;SDS011;15006;48.584;9.186;2023-09-07T03:15:02;4.57;;;4.28;;
27566;SDS011;15006;48.584;9.186;2023-09-07T03:17:29;6.32;;;4.55;;
27566;SDS011;15006;48.584;9.186;2023-09-07T03:19:55;5.18;;;4.70;;
27566;SDS011;15006;48.584;9.186;2023-09-07T03:22:25;4.90;;;4.60;;
27566;SDS011;15006;48.584;9.186;2023-09-07T03:24:51;4.95;;;4.68;;
27566;SDS011;15006;48.584;9.186;2023-09-07T03:27:17;4.97;;;4.22;;
27566;SDS011;15006;48.584;9.186;2023-09-07T03:29:46;5.10;;;4.80;;
27566;SDS011;15006;48.584;9.186;2023-09-07T03:32:16;4.55;;;4.35;;
27566;SDS011;15006;48.584;9.186;2023-09-07T03:34:43;4.45;;;4.20;;
27566;SDS011;15006;48.584;9.186;2023-09-07T03:37:09;4.70;;;4.40;;
27566;SDS011;15006;48.584;9.186;2023-09-07T03:39:36;4.78;;;4.47;;
27566;SDS011;15006;48.584;9.186;2023-09-07T03:42:02;4.60;;;4.20;;
27566;SDS011;15006;48.584;9.186;2023-09-07T03:44:29;5.45;;;4.63;;
27566;SDS011;15006;48.584;9.186;2023-09-07T03:46:54;4.43;;;4.13;;
27566;SDS011;15006;48.584;9.186;2023-09-07T03:49:20;3.90;;;3.70;;
27566;SDS011;15006;48.584;9.186;2023-09-07T03:51:47;4.07;;;3.78;;
27566;SDS011;15006;48.584;9.186;2023-09-07T03:54:12;3.95;;;3.72;;
27566;SDS011;15006;48.584;9.186;2023-09-07T03:56:38;4.95;;;4.55;;
27566;SDS011;15006;48.584;9.186;2023-09-07T03:59:04;5.22;;;4.78;;
27566;SDS011;15006;48.584;9.186;2023-09-07T04:01:30;6.00;;;4.97;;
27566;SDS011;15006;48.584;9.186;2023-09-07T04:03:56;5.30;;;5.00;;
27566;SDS011;15006;48.584;9.186;2023-09-07T04:06:22;4.80;;;4.40;;
27566;SDS011;15006;48.584;9.186;2023-09-07T04:08:49;4.60;;;4.35;;
27566;SDS011;15006;48.584;9.186;2023-09-07T04:11:15;4.90;;;4.60;;
27566;SDS011;15006;48.584;9.186;2023-09-07T04:13:41;4.55;;;4.35;;
27566;SDS011;15006;48.584;9.186;2023-09-07T04:16:08;4.78;;;4.38;;
27566;SDS011;15006;48.584;9.186;2023-09-07T04:18:35;4.70;;;4.30;;
27566;SDS011;15006;48.584;9.186;2023-09-07T04:21:04;4.28;;;3.97;;
27566;SDS011;15006;48.584;9.186;2023-09-07T04:23:34;5.10;;;4.55;;
27566;SDS011;15006;48.584;9.186;2023-09-07T04:26:04;5.13;;;4.82;;
27566;SDS011;15006;48.584;9.186;2023-09-07T04:28:34;5.45;;;5.15;;
27566;SDS011;15006;48.584;9.186;2023-09-07T04:31:01;6.00;;;5.60;;
27566;SDS011;15006;48.584;9.186;2023-09-07T04:33:34;5.38;;;4.97;;
27566;SDS011;15006;48.584;9.186;2023-09-07T04:36:13;5.63;;;5.30;;
27566;SDS011;15006;48.584;9.186;2023-09-07T04:38:40;5.65;;;5.28;;
27566;SDS011;15006;48.584;9.186;2023-09-07T04:41:07;5.50;;;5.00;;
27566;SDS011;15006;48.584;9.186;2023-09-07T04:43:38;5.30;;;4.88;;
27566;SDS011;15006;48.584;9.186;2023-09-07T04:46:11;5.28;;;4.97;;
27566;SDS011;15006;48.584;9.186;2023-09-07T04:48:38;5.47;;;5.07;;
27566;SDS011;15006;48.584;9.186;2023-09-07T04:51:09;9.70;;;5.05;;
27566;SDS011;15006;48.584;9.186;2023-09-07T04:53:38;4.70;;;4.45;;
27566;SDS011;15006;48.584;9.186;2023-09-07T04:56:05;5.00;;;4.70;;
27566;SDS011;15006;48.584;9.186;2023-09-07T04:58:35;4.90;;;4.60;;
27566;SDS011;15006;48.584;9.186;2023-09-07T05:01:05;4.82;;;4.63;;
27566;SDS011;15006;48.584;9.186;2023-09-07T05:03:36;5.68;;;5.18;;
27566;SDS011;15006;48.584;9.186;2023-09-07T05:06:03;5.50;;;5.00;;
27566;SDS011;15006;48.584;9.186;2023-09-07T05:08:29;5.43;;;5.00;;
27566;SDS011;15006;48.584;9.186;2023-09-07T05:10:56;5.03;;;4.72;;
27566;SDS011;15006;48.584;9.186;2023-09-07T05:13:29;5.10;;;4.70;;
27566;SDS011;15006;48.584;9.186;2023-09-07T05:15:55;5.72;;;5.28;;
27566;SDS011;15006;48.584;9.186;2023-09-07T05:18:23;5.50;;;5.10;;
27566;SDS011;15006;48.584;9.186;2023-09-07T05:20:49;6.03;;;5.63;;
27566;SDS011;15006;48.584;9.186;2023-09-07T05:23:17;5.53;;;5.10;;
27566;SDS011;15006;48.584;9.186;2023-09-07T05:25:45;5.40;;;5.10;;
27566;SDS011;15006;48.584;9.186;2023-09-07T05:28:13;5.50;;;5.10;;
27566;SDS011;15006;48.584;9.186;2023-09-07T05:30:40;5.85;;;5.35;;
27566;SDS011;15006;48.584;9.186;2023-09-07T05:33:08;5.22;;;4.82;;
27566;SDS011;15006;48.584;9.186;2023-09-07T05:35:35;6.07;;;4.60;;
27566;SDS011;15006;48.584;9.186;2023-09-07T05:38:02;4.90;;;4.60;;
27566;SDS011;15006;48.584;9.186;2023-09-07T05:40:30;5.22;;;4.93;;
27566;SDS011;15006;48.584;9.186;2023-09-07T05:43:03;4.60;;;4.30;;
27566;SDS011;15006;48.584;9.186;2023-09-07T05:45:30;5.70;;;5.30;;
27566;SDS011;15006;48.584;9.186;2023-09-07T05:47:59;5.90;;;5.50;;
27566;SDS011;15006;48.584;9.186;2023-09-07T05:50:25;4.93;;;4.57;;
27566;SDS011;15006;48.584;9.186;2023-09-07T05:52:52;5.22;;;4.82;;
27566;SDS011;15006;48.584;9.186;2023-09-07T05:55:18;6.78;;;6.25;;
27566;SDS011;15006;48.584;9.186;2023-09-07T05:57:43;6.00;;;5.47;;
27566;SDS011;15006;48.584;9.186;2023-09-07T06:00:10;6.68;;;5.90;;
27566;SDS011;15006;48.584;9.186;2023-09-07T06:02:37;5.60;;;5.15;;
27566;SDS011;15006;48.584;9.186;2023-09-07T06:05:04;6.00;;;5.43;;
27566;SDS011;15006;48.584;9.186;2023-09-07T06:07:30;6.38;;;5.82;;
27566;SDS011;15006;48.584;9.186;2023-09-07T06:09:56;5.88;;;5.50;;
27566;SDS011;15006;48.584;9.186;2023-09-07T06:12:24;5.90;;;5.30;;
27566;SDS011;15006;48.584;9.186;2023-09-07T06:14:50;8.80;;;5.90;;
27566;SDS011;15006;48.584;9.186;2023-09-07T06:17:16;6.85;;;6.32;;
27566;SDS011;15006;48.584;9.186;2023-09-07T06:19:42;6.15;;;5.85;;
27566;SDS011;15006;48.584;9.186;2023-09-07T06:22:08;6.80;;;6.03;;
27566;SDS011;15006;48.584;9.186;2023-09-07T06:24:34;6.68;;;5.85;;
27566;SDS011;15006;48.584;9.186;2023-09-07T06:27:00;5.97;;;5.68;;
27566;SDS011;15006;48.584;9.186;2023-09-07T06:29:26;6.50;;;5.40;;
27566;SDS011;15006;48.584;9.186;2023-09-07T06:31:52;5.38;;;5.07;;
27566;SDS011;15006;48.584;9.186;2023-09-07T06:34:18;5.60;;;5.20;;
27566;SDS011;15006;48.584;9.186;2023-09-07T06:36:44;6.03;;;5.43;;
27566;SDS011;15006;48.584;9.186;2023-09-07T06:39:10;5.55;;;5.20;;
27566;SDS011;15006;48.584;9.186;2023-09-07T06:41:36;8.00;;;5.85;;
27566;SDS011;15006;48.584;9.186;2023-09-07T06:44:02;6.00;;;5.50;;
27566;SDS011;15006;48.584;9.186;2023-09-07T06:46:29;6.07;;;5.72;;
27566;SDS011;15006;48.584;9.186;2023-09-07T06:48:55;5.93;;;5.43;;
27566;SDS011;15006;48.584;9.186;2023-09-07T06:51:21;5.82;;;5.32;;
27566;SDS011;15006;48.584;9.186;2023-09-07T06:53:47;6.05;;;5.70;;
27566;SDS011;15006;48.584;9.186;2023-09-07T06:56:15;5.57;;;5.18;;
27566;SDS011;15006;48.584;9.186;2023-09-07T06:58:41;5.97;;;5.38;;
27566;SDS011;15006;48.584;9.186;2023-09-07T07:01:07;5.30;;;4.95;;
27566;SDS011;15006;48.584;9.186;2023-09-07T07:03:33;5.43;;;4.97;;
27566;SDS011;15006;48.584;9.186;2023-09-07T07:05:59;5.65;;;5.25;;
27566;SDS011;15006;48.584;9.186;2023-09-07T07:08:25;5.63;;;5.32;;
27566;SDS011;15006;48.584;9.186;2023-09-07T07:10:51;4.72;;;4.40;;
27566;SDS011;15006;48.584;9.186;2023-09-07T07:13:18;5.80;;;5.40;;
27566;SDS011;15006;48.584;9.186;2023-09-07T07:15:44;5.13;;;4.72;;
27566;SDS011;15006;48.584;9.186;2023-09-07T07:18:10;5.80;;;5.25;;
27566;SDS011;15006;48.584;9.186;2023-09-07T07:20:40;5.20;;;4.85;;
27566;SDS011;15006;48.584;9.186;2023-09-07T07:23:08;4.72;;;4.43;;
27566;SDS011;15006;48.584;9.186;2023-09-07T07:25:35;4.15;;;3.95;;
27566;SDS011;15006;48.584;9.186;2023-09-07T07:28:03;7.47;;;4.40;;
27566;SDS011;15006;48.584;9.186;2023-09-07T07:30:34;4.93;;;4.63;;
27566;SDS011;15006;48.584;9.186;2023-09-07T07:35:32;4.22;;;3.92;;
27566;SDS011;15006;48.584;9.186;2023-09-07T07:38:02;4.07;;;3.78;;
27566;SDS011;15006;48.584;9.186;2023-09-07T07:40:29;4.68;;;3.60;;
27566;SDS011;15006;48.584;9.186;2023-09-07T07:42:56;4.45;;;3.67;;
27566;SDS011;15006;48.584;9.186;2023-09-07T07:45:22;3.72;;;3.60;;
27566;SDS011;15006;48.584;9.186;2023-09-07T07:47:48;4.05;;;3.65;;
27566;SDS011;15006;48.584;9.186;2023-09-07T07:50:16;3.60;;;3.40;;
27566;SDS011;15006;48.584;9.186;2023-09-07T07:52:42;3.47;;;3.28;;
27566;SDS011;15006;48.584;9.186;2023-09-07T07:55:09;3.80;;;3.60;;
27566;SDS011;15006;48.584;9.186;2023-09-07T07:57:35;5.05;;;3.72;;
27566;SDS011;15006;48.584;9.186;2023-09-07T08:00:02;3.65;;;3.45;;
27566;SDS011;15006;48.584;9.186;2023-09-07T08:02:32;3.42;;;3.28;;
27566;SDS011;15006;48.584;9.186;2023-09-07T08:04:58;3.33;;;3.13;;
27566;SDS011;15006;48.584;9.186;2023-09-07T08:07:24;3.58;;;3.28;;
27566;SDS011;15006;48.584;9.186;2023-09-07T08:09:50;3.45;;;3.25;;
27566;SDS011;15006;48.584;9.186;2023-09-07T08:12:16;3.30;;;3.10;;
27566;SDS011;15006;48.584;9.186;2023-09-07T08:14:42;4.78;;;3.17;;
27566;SDS011;15006;48.584;9.186;2023-09-07T08:17:09;3.15;;;2.88;;
27566;SDS011;15006;48.584;9.186;2023-09-07T08:19:35;3.00;;;2.80;;
27566;SDS011;15006;48.584;9.186;2023-09-07T08:22:01;3.40;;;3.20;;
27566;SDS011;15006;48.584;9.186;2023-09-07T08:24:29;2.80;;;2.70;;
27566;SDS011;15006;48.584;9.186;2023-09-07T08:26:55;2.85;;;2.75;;
27566;SDS011;15006;48.584;9.186;2023-09-07T08:29:23;2.90;;;2.80;;
27566;SDS011;15006;48.584;9.186;2023-09-07T08:31:52;3.10;;;2.90;;
27566;SDS011;15006;48.584;9.186;2023-09-07T08:34:19;4.20;;;3.30;;
27566;SDS011;15006;48.584;9.186;2023-09-07T08:36:47;2.88;;;2.78;;
27566;SDS011;15006;48.584;9.186;2023-09-07T08:39:16;2.85;;;2.65;;
27566;SDS011;15006;48.584;9.186;2023-09-07T08:41:43;3.08;;;2.88;;
27566;SDS011;15006;48.584;9.186;2023-09-07T08:44:10;3.35;;;2.92;;
27566;SDS011;15006;48.584;9.186;2023-09-07T08:46:37;5.18;;;3.20;;
27566;SDS011;15006;48.584;9.186;2023-09-07T08:49:03;2.92;;;2.72;;
27566;SDS011;15006;48.584;9.186;2023-09-07T08:51:30;3.05;;;2.53;;
27566;SDS011;15006;48.584;9.186;2023-09-07T08:54:01;2.53;;;2.33;;
27566;SDS011;15006;48.584;9.186;2023-09-07T08:56:28;2.50;;;2.40;;
27566;SDS011;15006;48.584;9.186;2023-09-07T08:58:54;2.47;;;2.30;;
27566;SDS011;15006;48.584;9.186;2023-09-07T09:01:20;2.83;;;2.72;;
27566;SDS011;15006;48.584;9.186;2023-09-07T09:03:48;2.50;;;2.40;;
27566;SDS011;15006;48.584;9.186;2023-09-07T09:06:18;2.42;;;2.22;;
27566;SDS011;15006;48.584;9.186;2023-09-07T09:08:50;2.60;;;2.38;;
27566;SDS011;15006;48.584;9.186;2023-09-07T09:11:19;2.92;;;2.80;;
27566;SDS011;15006;48.584;9.186;2023-09-07T09:13:46;4.47;;;2.40;;
27566;SDS011;15006;48.584;9.186;2023-09-07T09:16:14;2.20;;;2.10;;
27566;SDS011;15006;48.584;9.186;2023-09-07T09:18:49;2.35;;;2.20;;
27566;SDS011;15006;48.584;9.186;2023-09-07T09:21:26;2.65;;;2.55;;
27566;SDS011;15006;48.584;9.186;2023-09-07T09:23:54;3.42;;;2.28;;
27566;SDS011;15006;48.584;9.186;2023-09-07T09:26:21;3.15;;;2.33;;
27566;SDS011;15006;48.584;9.186;2023-09-07T09:28:48;2.60;;;2.40;;
27566;SDS011;15006;48.584;9.186;2023-09-07T09:31:17;2.63;;;2.42;;
27566;SDS011;15006;48.584;9.186;2023-09-07T09:33:47;2.40;;;2.30;;
27566;SDS011;15006;48.584;9.186;2023-09-07T09:36:16;2.30;;;2.20;;
27566;SDS011;15006;48.584;9.186;2023-09-07T09:38:46;2.33;;;2.22;;
27566;SDS011;15006;48.584;9.186;2023-09-07T09:41:19;2.25;;;2.15;;
27566;SDS011;15006;48.584;9.186;2023-09-07T09:43:46;2.38;;;2.28;;
27566;SDS011;15006;48.584;9.186;2023-09-07T09:46:14;2.97;;;2.70;;
27566;SDS011;15006;48.584;9.186;2023-09-07T09:48:42;8.02;;;2.65;;
27566;SDS011;15006;48.584;9.186;2023-09-07T09:51:08;2.38;;;2.28;;
27566;SDS011;15006;48.584;9.186;2023-09-07T09:53:36;2.13;;;1.92;;
27566;SDS011;15006;48.584;9.186;2023-09-07T09:56:03;2.42;;;2.25;;
27566;SDS011;15006;48.584;9.186;2023-09-07T09:58:29;2.72;;;2.40;;
27566;SDS011;15006;48.584;9.186;2023-09-07T10:00:56;2.83;;;2.50;;
27566;SDS011;15006;48.584;9.186;2023-09-07T10:03:24;2.50;;;2.40;;
27566;SDS011;15006;48.584;9.186;2023-09-07T10:05:55;1.80;;;1.80;;
27566;SDS011;15006;48.584;9.186;2023-09-07T10:08:21;2.00;;;1.90;;
27566;SDS011;15006;48.584;9.186;2023-09-07T10:10:53;2.20;;;2.10;;
27566;SDS011;15006;48.584;9.186;2023-09-07T10:13:29;2.33;;;2.22;;
27566;SDS011;15006;48.584;9.186;2023-09-07T10:16:04;2.40;;;2.20;;
27566;SDS011;15006;48.584;9.186;2023-09-07T10:18:38;3.58;;;1.92;;
27566;SDS011;15006;48.584;9.186;2023-09-07T10:21:04;2.95;;;2.20;;
27566;SDS011;15006;48.584;9.186;2023-09-07T10:23:38;3.25;;;1.98;;
27566;SDS011;15006;48.584;9.186;2023-09-07T10:26:15;7.40;;;2.20;;
27566;SDS011;15006;48.584;9.186;2023-09-07T10:28:43;2.22;;;1.98;;
27566;SDS011;15006;48.584;9.186;2023-09-07T10:31:14;2.45;;;2.17;;
27566;SDS011;15006;48.584;9.186;2023-09-07T10:33:42;3.72;;;2.35;;
27566;SDS011;15006;48.584;9.186;2023-09-07T10:36:09;2.90;;;2.05;;
27566;SDS011;15006;48.584;9.186;2023-09-07T10:38:53;4.50;;;2.25;;
27566;SDS011;15006;48.584;9.186;2023-09-07T10:43:48;5.80;;;2.17;;
27566;SDS011;15006;48.584;9.186;2023-09-07T10:46:22;4.45;;;2.17;;
27566;SDS011;15006;48.584;9.186;2023-09-07T10:48:50;3.25;;;2.10;;
27566;SDS011;15006;48.584;9.186;2023-09-07T10:51:20;2.75;;;2.20;;
27566;SDS011;15006;48.584;9.186;2023-09-07T10:53:46;3.38;;;2.05;;
27566;SDS011;15006;48.584;9.186;2023-09-07T10:56:12;2.28;;;2.17;;
27566;SDS011;15006;48.584;9.186;2023-09-07T10:58:38;2.47;;;2.10;;
27566;SDS011;15006;48.584;9.186;2023-09-07T11:01:07;1.90;;;1.80;;
27566;SDS011;15006;48.584;9.186;2023-09-07T11:03:35;2.67;;;2.45;;
27566;SDS011;15006;48.584;9.186;2023-09-07T11:08:36;2.47;;;2.05;;
27566;SDS011;15006;48.584;9.186;2023-09-07T11:11:03;2.05;;;1.95;;
27566;SDS011;15006;48.584;9.186;2023-09-07T11:13:30;3.13;;;1.90;;
27566;SDS011;15006;48.584;9.186;2023-09-07T11:15:57;2.13;;;2.00;;
27566;SDS011;15006;48.584;9.186;2023-09-07T11:18:25;4.18;;;2.28;;
27566;SDS011;15006;48.584;9.186;2023-09-07T11:20:51;2.45;;;2.35;;
27566;SDS011;15006;48.584;9.186;2023-09-07T11:23:19;2.17;;;2.08;;
27566;SDS011;15006;48.584;9.186;2023-09-07T11:25:46;12.95;;;2.35;;
27566;SDS011;15006;48.584;9.186;2023-09-07T11:28:15;2.30;;;2.20;;
27566;SDS011;15006;48.584;9.186;2023-09-07T11:33:20;2.45;;;2.35;;
27566;SDS011;15006;48.584;9.186;2023-09-07T11:35:47;2.10;;;2.00;;
27566;SDS011;15006;48.584;9.186;2023-09-07T11:38:14;3.28;;;2.05;;
27566;SDS011;15006;48.584;9.186;2023-09-07T11:40:42;2.03;;;1.92;;
27566;SDS011;15006;48.584;9.186;2023-09-07T11:43:10;2.88;;;2.30;;
27566;SDS011;15006;48.584;9.186;2023-09-07T11:45:41;2.83;;;2.00;;
27566;SDS011;15006;48.584;9.186;2023-09-07T11:48:09;2.33;;;2.13;;
27566;SDS011;15006;48.584;9.186;2023-09-07T11:50:36;2.10;;;1.95;;
27566;SDS011;15006;48.584;9.186;2023-09-07T11:53:03;1.90;;;1.80;;
27566;SDS011;15006;48.584;9.186;2023-09-07T11:55:30;2.20;;;2.00;;
27566;SDS011;15006;48.584;9.186;2023-09-07T11:57:58;2.47;;;2.03;;
27566;SDS011;15006;48.584;9.186;2023-09-07T12:00:24;7.22;;;2.17;;
27566;SDS011;15006;48.584;9.186;2023-09-07T12:02:51;2.15;;;2.05;;
27566;SDS011;15006;48.584;9.186;2023-09-07T12:05:17;2.28;;;2.08;;
27566;SDS011;15006;48.584;9.186;2023-09-07T12:07:45;1.85;;;1.75;;
27566;SDS011;15006;48.584;9.186;2023-09-07T12:10:11;2.80;;;2.03;;
27566;SDS011;15006;48.584;9.186;2023-09-07T12:12:42;4.20;;;1.70;;
27566;SDS011;15006;48.584;9.186;2023-09-07T12:15:09;2.30;;;2.10;;
27566;SDS011;15006;48.584;9.186;2023-09-07T12:17:39;2.00;;;1.90;;
27566;SDS011;15006;48.584;9.186;2023-09-07T12:20:05;1.73;;;1.73;;
27566;SDS011;15006;48.584;9.186;2023-09-07T12:22:35;1.80;;;1.70;;
27566;SDS011;15006;48.584;9.186;2023-09-07T12:25:03;3.15;;;1.90;;
27566;SDS011;15006;48.584;9.186;2023-09-07T12:27:36;1.80;;;1.60;;
27566;SDS011;15006;48.584;9.186;2023-09-07T12:30:02;2.33;;;2.13;;
27566;SDS011;15006;48.584;9.186;2023-09-07T12:32:33;1.60;;;1.48;;
27566;SDS011;15006;48.584;9.186;2023-09-07T12:34:59;1.67;;;1.60;;
27566;SDS011;15006;48.584;9.186;2023-09-07T12:37:25;1.88;;;1.80;;
27566;SDS011;15006;48.584;9.186;2023-09-07T12:39:51;1.98;;;1.88;;
27566;SDS011;15006;48.584;9.186;2023-09-07T12:42:18;1.63;;;1.52;;
27566;SDS011;15006;48.584;9.186;2023-09-07T12:44:44;2.10;;;1.98;;
27566;SDS011;15006;48.584;9.186;2023-09-07T12:47:10;3.90;;;1.73;;
27566;SDS011;15006;48.584;9.186;2023-09-07T12:49:36;1.92;;;1.65;;
27566;SDS011;15006;48.584;9.186;2023-09-07T12:52:02;1.80;;;1.70;;
27566;SDS011;15006;48.584;9.186;2023-09-07T12:54:34;2.30;;;1.45;;
27566;SDS011;15006;48.584;9.186;2023-09-07T12:57:02;1.58;;;1.55;;
27566;SDS011;15006;48.584;9.186;2023-09-07T12:59:29;2.45;;;1.83;;
27566;SDS011;15006;48.584;9.186;2023-09-07T13:01:55;1.70;;;1.60;;
27566;SDS011;15006;48.584;9.186;2023-09-07T13:04:21;6.95;;;1.67;;
27566;SDS011;15006;48.584;9.186;2023-09-07T13:06:47;2.15;;;1.52;;
27566;SDS011;15006;48.584;9.186;2023-09-07T13:09:13;3.28;;;1.60;;
27566;SDS011;15006;48.584;9.186;2023-09-07T13:11:39;1.65;;;1.60;;
27566;SDS011;15006;48.584;9.186;2023-09-07T13:14:05;1.50;;;1.40;;
27566;SDS011;15006;48.584;9.186;2023-09-07T13:19:02;1.35;;;1.35;;
27566;SDS011;15006;48.584;9.186;2023-09-07T13:21:28;1.90;;;1.60;;
27566;SDS011;15006;48.584;9.186;2023-09-07T13:23:54;1.60;;;1.50;;
27566;SDS011;15006;48.584;9.186;2023-09-07T13:26:20;1.80;;;1.70;;
27566;SDS011;15006;48.584;9.186;2023-09-07T13:28:46;3.63;;;1.80;;
27566;SDS011;15006;48.584;9.186;2023-09-07T13:31:12;1.60;;;1.50;;
27566;SDS011;15006;48.584;9.186;2023-09-07T13:33:38;1.55;;;1.45;;
27566;SDS011;15006;48.584;9.186;2023-09-07T13:36:04;1.92;;;1.50;;
27566;SDS011;15006;48.584;9.186;2023-09-07T13:38:30;1.45;;;1.40;;
27566;SDS011;15006;48.584;9.186;2023-09-07T13:40:56;3.33;;;1.27;;
27566;SDS011;15006;48.584;9.186;2023-09-07T13:43:22;5.25;;;1.50;;
27566;SDS011;15006;48.584;9.186;2023-09-07T13:45:48;2.08;;;1.67;;
27566;SDS011;15006;48.584;9.186;2023-09-07T13:48:14;1.73;;;1.30;;
27566;SDS011;15006;48.584;9.186;2023-09-07T13:50:40;1.33;;;1.33;;
27566;SDS011;15006;48.584;9.186;2023-09-07T13:53:06;1.33;;;1.10;;
27566;SDS011;15006;48.584;9.186;2023-09-07T13:55:32;1.60;;;1.50;;
27566;SDS011;15006;48.584;9.186;2023-09-07T13:57:59;1.35;;;1.25;;
27566;SDS011;15006;48.584;9.186;2023-09-07T14:00:25;3.15;;;1.30;;
27566;SDS011;15006;48.584;9.186;2023-09-07T14:02:51;1.10;;;1.10;;
27566;SDS011;15006;48.584;9.186;2023-09-07T14:05:18;2.25;;;1.40;;
27566;SDS011;15006;48.584;9.186;2023-09-07T14:07:44;1.10;;;1.10;;
27566;SDS011;15006;48.584;9.186;2023-09-07T14:10:10;1.40;;;1.30;;
27566;SDS011;15006;48.584;9.186;2023-09-07T14:12:36;2.75;;;1.40;;
27566;SDS011;15006;48.584;9.186;2023-09-07T14:15:02;8.38;;;1.55;;
27566;SDS011;15006;48.584;9.186;2023-09-07T14:17:29;5.00;;;1.30;;
27566;SDS011;15006;48.584;9.186;2023-09-07T14:19:55;4.28;;;1.98;;
27566;SDS011;15006;48.584;9.186;2023-09-07T14:22:21;2.45;;;1.50;;
27566;SDS011;15006;48.584;9.186;2023-09-07T14:24:47;2.97;;;1.50;;
27566;SDS011;15006;48.584;9.186;2023-09-07T14:27:13;1.58;;;1.40;;
27566;SDS011;15006;48.584;9.186;2023-09-07T14:29:39;1.23;;;1.23;;
27566;SDS011;15006;48.584;9.186;2023-09-07T14:32:05;1.52;;;1.30;;
27566;SDS011;15006;48.584;9.186;2023-09-07T14:34:31;1.15;;;1.05;;
27566;SDS011;15006;48.584;9.186;2023-09-07T14:36:58;3.70;;;1.30;;
27566;SDS011;15006;48.584;9.186;2023-09-07T14:39:24;1.83;;;1.20;;
27566;SDS011;15006;48.584;9.186;2023-09-07T14:41:50;1.25;;;1.20;;
27566;SDS011;15006;48.584;9.186;2023-09-07T14:44:20;1.30;;;1.30;;
27566;SDS011;15006;48.584;9.186;2023-09-07T14:46:47;4.28;;;1.08;;
27566;SDS011;15006;48.584;9.186;2023-09-07T14:49:15;1.65;;;1.55;;
27566;SDS011;15006;48.584;9.186;2023-09-07T14:51:43;1.13;;;1.13;;
27566;SDS011;15006;48.584;9.186;2023-09-07T14:54:10;1.15;;;1.15;;
27566;SDS011;15006;48.584;9.186;2023-09-07T14:56:37;1.48;;;1.40;;
27566;SDS011;15006;48.584;9.186;2023-09-07T14:59:05;2.65;;;1.33;;
27566;SDS011;15006;48.584;9.186;2023-09-07T15:01:32;3.63;;;1.40;;